Time;durP1;ratioP1;P1;durP2;ratioP2;P2;SDS_P1;SDS_P2;PMS_P1;PMS_P2;Temp;Humidity;BMP_temperature;BMP_pressure;BME280_temperature;BME280_humidity;BME280_pressure;Samples;Min_cycle;Max_cycle;Signal;HPM_P1;HPM_P2
2022/10/18 00:01:11;;;;;;;10.73;8.37;;;13.50;99.90;;;;;;5039434;28;20618;-86
2022/10/18 00:03:39;;;;;;;12.40;7.93;;;13.50;99.90;;;;;;5038464;28;20623;-87
2022/10/18 00:06:07;;;;;;;8.20;7.00;;;13.40;99.90;;;;;;5046661;28;20658;-88
2022/10/18 00:08:35;;;;;;;11.87;7.97;;;13.40;99.90;;;;;;5043732;28;20690;-86
2022/10/18 00:11:02;;;;;;;11.20;9.03;;;13.10;99.90;;;;;;5046105;28;20981;-86
2022/10/18 00:13:29;;;;;;;8.33;7.33;;;13.40;99.90;;;;;;5036252;28;20649;-87
2022/10/18 00:15:59;;;;;;;9.43;8.10;;;13.40;99.90;;;;;;5042935;28;20628;-87
2022/10/18 00:18:27;;;;;;;9.67;7.30;;;13.40;99.90;;;;;;5035605;28;20651;-87
2022/10/18 00:20:59;;;;;;;8.77;7.70;;;13.20;99.90;;;;;;5045566;28;20618;-86
2022/10/18 00:23:26;;;;;;;9.63;8.27;;;13.20;99.90;;;;;;5040834;28;20641;-86
2022/10/18 00:26:01;;;;;;;12.63;9.33;;;13.20;99.90;;;;;;5040805;28;21036;-86
2022/10/18 00:28:28;;;;;;;11.90;8.80;;;13.30;99.90;;;;;;5039429;28;20642;-87
2022/10/18 00:30:55;;;;;;;13.27;9.60;;;13.30;99.90;;;;;;5042405;28;20629;-85
2022/10/18 00:33:21;;;;;;;17.70;8.93;;;13.20;99.90;;;;;;5040165;28;20633;-86
2022/10/18 00:35:49;;;;;;;15.53;9.87;;;13.10;99.90;;;;;;5039950;28;20632;-86
2022/10/18 00:38:16;;;;;;;14.43;8.93;;;13.30;99.90;;;;;;5045692;28;20654;-87
2022/10/18 00:40:43;;;;;;;16.03;8.03;;;12.90;99.90;;;;;;5035110;28;20634;-87
2022/10/18 00:43:16;;;;;;;11.83;8.10;;;13.20;99.90;;;;;;5039520;28;20622;-86
2022/10/18 00:45:42;;;;;;;11.33;7.70;;;13.10;99.90;;;;;;5034788;28;21209;-86
2022/10/18 00:48:10;;;;;;;14.77;8.17;;;13.10;99.90;;;;;;5045339;28;20645;-86
2022/10/18 00:50:37;;;;;;;12.80;8.40;;;12.70;99.90;;;;;;5039483;28;20998;-86
2022/10/18 00:53:09;;;;;;;8.37;7.57;;;13.10;99.90;;;;;;5038814;28;20634;-86
2022/10/18 00:55:36;;;;;;;11.57;9.37;;;12.80;99.90;;;;;;5041691;28;21191;-86
2022/10/18 00:58:04;;;;;;;8.63;7.33;;;13.00;99.90;;;;;;5041876;28;20657;-86
2022/10/18 01:00:31;;;;;;;19.57;9.03;;;12.70;99.90;;;;;;5046223;28;20641;-86
2022/10/18 01:02:59;;;;;;;11.77;8.17;;;13.10;99.90;;;;;;5040679;28;21615;-87
2022/10/18 01:05:26;;;;;;;12.70;7.77;;;12.90;99.90;;;;;;5044861;28;20665;-86
2022/10/18 01:08:30;;;;;;;10.10;7.70;;;13.10;99.90;;;;;;5055652;28;21001;-86
2022/10/18 01:11:09;;;;;;;12.77;8.27;;;13.20;99.90;;;;;;5036667;28;20649;-87
2022/10/18 01:13:47;;;;;;;8.30;7.30;;;13.20;99.90;;;;;;5043514;28;21010;-86
2022/10/18 01:16:21;;;;;;;9.60;7.73;;;13.20;99.90;;;;;;5048122;28;20618;-85
2022/10/18 01:18:52;;;;;;;10.40;6.73;;;13.30;99.90;;;;;;5043951;28;20653;-86
2022/10/18 01:21:31;;;;;;;10.47;7.63;;;13.00;99.90;;;;;;5057450;28;20630;-86
2022/10/18 01:24:32;;;;;;;13.30;7.40;;;12.90;99.90;;;;;;5048905;28;20633;-86
2022/10/18 01:27:46;;;;;;;11.10;7.10;;;13.40;99.90;;;;;;5051105;28;20631;-86
2022/10/18 01:30:37;;;;;;;15.97;7.03;;;13.40;99.90;;;;;;4982039;28;21393;-87
2022/10/18 01:33:10;;;;;;;9.43;7.27;;;13.20;99.90;;;;;;5042820;28;21138;-87
2022/10/18 01:35:42;;;;;;;15.23;7.17;;;13.50;99.90;;;;;;5051489;28;20694;-88
2022/10/18 01:38:15;;;;;;;11.20;7.10;;;13.20;99.90;;;;;;5058917;28;20660;-87
2022/10/18 01:40:45;;;;;;;7.27;6.50;;;13.50;99.90;;;;;;5069821;28;20636;-86
2022/10/18 01:43:13;;;;;;;9.90;6.63;;;13.60;99.90;;;;;;5066035;28;20655;-87
2022/10/18 01:45:42;;;;;;;15.63;6.50;;;13.60;99.90;;;;;;5062538;28;20665;-87
2022/10/18 01:48:10;;;;;;;7.20;6.60;;;13.60;99.90;;;;;;5065839;28;20657;-87
2022/10/18 01:50:37;;;;;;;8.77;6.90;;;13.60;99.90;;;;;;5062561;28;20624;-87
2022/10/18 01:53:03;;;;;;;12.80;6.80;;;13.60;99.90;;;;;;5061835;28;20642;-86
2022/10/18 01:55:38;;;;;;;8.53;6.17;;;13.70;99.90;;;;;;5059409;28;20626;-87
2022/10/18 01:58:16;;;;;;;9.03;6.20;;;13.70;99.90;;;;;;5068782;28;20649;-87
2022/10/18 02:00:50;;;;;;;9.67;6.40;;;13.70;99.90;;;;;;5051394;28;20640;-87
2022/10/18 02:03:21;;;;;;;10.63;7.17;;;13.40;99.90;;;;;;5041951;28;20622;-86
2022/10/18 02:05:52;;;;;;;11.23;7.20;;;13.60;99.90;;;;;;5039779;28;21603;-86
2022/10/18 02:08:28;;;;;;;11.33;6.77;;;13.40;99.90;;;;;;5045151;28;20660;-86
2022/10/18 02:10:58;;;;;;;10.40;7.57;;;13.60;99.90;;;;;;5046471;28;20823;-86
2022/10/18 02:13:31;;;;;;;9.30;7.03;;;13.60;99.90;;;;;;5042274;28;20634;-86
2022/10/18 02:16:04;;;;;;;9.40;6.73;;;13.30;99.90;;;;;;5042536;28;20629;-86
2022/10/18 02:18:35;;;;;;;13.73;7.37;;;13.10;99.90;;;;;;5040250;28;21477;-86
2022/10/18 02:21:05;;;;;;;11.97;7.10;;;13.60;99.90;;;;;;5046564;28;20633;-86
2022/10/18 02:23:33;;;;;;;8.33;6.90;;;13.60;99.90;;;;;;5042916;28;21166;-86
2022/10/18 02:26:00;;;;;;;11.53;6.70;;;13.30;99.90;;;;;;5044950;28;20693;-87
2022/10/18 02:28:27;;;;;;;13.23;6.60;;;13.60;99.90;;;;;;5041935;28;20677;-87
2022/10/18 02:31:03;;;;;;;14.40;6.63;;;13.60;99.90;;;;;;5042284;28;20614;-87
2022/10/18 02:33:35;;;;;;;9.37;6.40;;;13.50;99.90;;;;;;5046459;28;20640;-87
2022/10/18 02:36:06;;;;;;;7.40;6.80;;;13.70;99.90;;;;;;5040260;28;20626;-87
2022/10/18 02:38:33;;;;;;;11.07;6.53;;;13.70;99.90;;;;;;5039034;28;20659;-87
2022/10/18 02:41:00;;;;;;;20.10;7.33;;;13.70;99.90;;;;;;5041886;28;20646;-87
2022/10/18 02:43:27;;;;;;;12.07;6.60;;;13.70;99.90;;;;;;5019978;28;20634;-87
2022/10/18 02:45:54;;;;;;;11.27;7.23;;;13.70;99.90;;;;;;5041391;28;21017;-87
2022/10/18 02:48:22;;;;;;;8.27;6.63;;;13.70;99.90;;;;;;5038959;28;20646;-87
2022/10/18 02:50:49;;;;;;;11.20;7.57;;;13.70;99.90;;;;;;5039291;28;20792;-87
2022/10/18 02:53:16;;;;;;;8.70;6.40;;;13.70;99.90;;;;;;5041302;28;21187;-87
2022/10/18 02:55:46;;;;;;;9.60;6.80;;;13.40;99.90;;;;;;5045323;28;20625;-87
2022/10/18 02:58:13;;;;;;;13.43;7.13;;;13.80;99.90;;;;;;5046757;28;20653;-86
2022/10/18 03:00:40;;;;;;;9.23;6.40;;;13.70;99.90;;;;;;5043735;28;21143;-87
2022/10/18 03:03:06;;;;;;;13.30;7.27;;;13.50;99.90;;;;;;5040978;28;20637;-85
2022/10/18 03:05:35;;;;;;;7.23;6.53;;;13.90;99.90;;;;;;5038297;28;21041;-87
2022/10/18 03:08:01;;;;;;;12.90;7.70;;;13.90;99.90;;;;;;5047725;28;21061;-87
2022/10/18 03:10:28;;;;;;;7.90;6.20;;;13.90;99.90;;;;;;5043137;28;20636;-86
2022/10/18 03:12:55;;;;;;;13.87;7.20;;;13.80;99.90;;;;;;5042797;28;20621;-86
2022/10/18 03:15:21;;;;;;;11.47;6.30;;;13.80;99.90;;;;;;5044771;28;20629;-86
2022/10/18 03:17:48;;;;;;;8.17;6.53;;;13.70;99.90;;;;;;5041705;28;20673;-86
2022/10/18 03:20:15;;;;;;;8.13;6.07;;;13.70;99.90;;;;;;5041827;28;20634;-86
2022/10/18 03:22:43;;;;;;;7.83;6.70;;;13.70;99.90;;;;;;5042992;28;20633;-86
2022/10/18 03:25:10;;;;;;;10.43;6.70;;;13.60;99.90;;;;;;5036049;28;20670;-86
2022/10/18 03:27:36;;;;;;;11.50;7.40;;;13.40;99.90;;;;;;5046214;28;21268;-87
2022/10/18 03:30:04;;;;;;;9.70;6.03;;;13.40;99.90;;;;;;5047072;28;20641;-86
2022/10/18 03:32:31;;;;;;;12.63;7.27;;;13.40;99.90;;;;;;5039660;28;21175;-87
2022/10/18 03:34:58;;;;;;;7.03;6.13;;;13.70;99.90;;;;;;5042145;28;20638;-87
2022/10/18 03:37:24;;;;;;;9.90;5.80;;;13.70;99.90;;;;;;5044638;28;20649;-87
2022/10/18 03:39:53;;;;;;;13.00;6.70;;;13.70;99.90;;;;;;5041890;28;20654;-85
2022/10/18 03:42:19;;;;;;;6.63;5.87;;;13.70;99.90;;;;;;5038769;28;20649;-86
2022/10/18 03:44:46;;;;;;;7.23;6.17;;;13.70;99.90;;;;;;5040226;28;20652;-86
2022/10/18 03:47:13;;;;;;;7.97;6.07;;;13.80;99.90;;;;;;5035422;28;20654;-86
2022/10/18 03:49:40;;;;;;;9.13;6.47;;;13.40;99.90;;;;;;5042800;28;20657;-87
2022/10/18 03:52:06;;;;;;;6.20;5.70;;;13.70;99.90;;;;;;5043273;28;20621;-87
2022/10/18 03:54:33;;;;;;;5.83;5.27;;;13.80;99.90;;;;;;5040209;28;20618;-87
2022/10/18 03:57:01;;;;;;;8.60;5.50;;;13.60;99.90;;;;;;5038423;28;20629;-87
2022/10/18 03:59:28;;;;;;;6.97;6.13;;;13.50;99.90;;;;;;5038417;28;20645;-87
2022/10/18 04:01:55;;;;;;;10.73;6.07;;;13.30;99.90;;;;;;5040182;28;20611;-86
2022/10/18 04:04:22;;;;;;;11.73;6.27;;;13.60;99.90;;;;;;5035723;28;20630;-87
2022/10/18 04:06:49;;;;;;;7.90;5.60;;;13.50;99.90;;;;;;5047222;28;20653;-87
2022/10/18 04:09:15;;;;;;;8.47;5.33;;;13.70;99.90;;;;;;5044269;28;20651;-88
2022/10/18 04:11:43;;;;;;;7.97;5.73;;;13.20;99.90;;;;;;5040053;28;20634;-87
2022/10/18 04:14:11;;;;;;;9.37;5.53;;;13.70;99.90;;;;;;5039971;28;21272;-87
2022/10/18 04:16:37;;;;;;;8.17;5.90;;;13.50;99.90;;;;;;5040870;28;20630;-86
2022/10/18 04:19:04;;;;;;;9.00;6.03;;;13.60;99.90;;;;;;5038667;28;20650;-87
2022/10/18 04:21:31;;;;;;;9.73;6.60;;;13.40;99.90;;;;;;5037226;28;20625;-86
2022/10/18 04:23:58;;;;;;;9.83;5.70;;;13.40;99.90;;;;;;5043192;28;20633;-86
2022/10/18 04:26:24;;;;;;;13.43;5.43;;;13.60;99.90;;;;;;5041576;28;20667;-86
2022/10/18 04:28:51;;;;;;;10.07;5.80;;;13.20;99.90;;;;;;5042376;28;20645;-86
2022/10/18 04:31:19;;;;;;;9.20;5.90;;;13.50;99.90;;;;;;5035475;28;20635;-86
2022/10/18 04:33:46;;;;;;;6.90;5.20;;;13.50;99.90;;;;;;5039807;28;20640;-86
2022/10/18 04:36:12;;;;;;;7.50;6.10;;;13.50;99.90;;;;;;5040350;28;20622;-86
2022/10/18 04:38:39;;;;;;;8.30;5.23;;;13.60;99.90;;;;;;5044417;28;20651;-87
2022/10/18 04:41:06;;;;;;;8.40;5.67;;;13.80;99.90;;;;;;5048831;28;20637;-87
2022/10/18 04:43:33;;;;;;;11.97;6.97;;;13.50;99.90;;;;;;5043208;28;20756;-87
2022/10/18 04:46:00;;;;;;;9.33;6.77;;;13.50;99.90;;;;;;5048570;28;20677;-87
2022/10/18 04:48:28;;;;;;;9.23;6.30;;;13.60;99.90;;;;;;5047567;28;20722;-86
2022/10/18 04:50:55;;;;;;;6.70;6.00;;;13.50;99.90;;;;;;5046816;28;20630;-87
2022/10/18 04:53:21;;;;;;;10.10;5.50;;;13.50;99.90;;;;;;5045904;28;20619;-86
2022/10/18 04:55:49;;;;;;;8.63;7.20;;;13.20;99.90;;;;;;5046470;28;21174;-86
2022/10/18 04:58:16;;;;;;;8.33;6.70;;;13.40;99.90;;;;;;5046365;28;20649;-86
2022/10/18 05:00:43;;;;;;;6.33;5.73;;;13.30;99.90;;;;;;5045446;28;20633;-86
2022/10/18 05:03:12;;;;;;;8.37;6.17;;;13.00;99.90;;;;;;5044966;28;20618;-86
2022/10/18 05:05:41;;;;;;;11.70;6.43;;;13.40;99.90;;;;;;5045250;28;21049;-87
2022/10/18 05:08:07;;;;;;;7.23;6.13;;;13.50;99.90;;;;;;5045300;28;20664;-87
2022/10/18 05:10:34;;;;;;;11.90;6.63;;;13.40;99.90;;;;;;5049822;28;21175;-87
2022/10/18 05:13:03;;;;;;;7.43;6.73;;;13.10;99.90;;;;;;5051016;28;20898;-86
2022/10/18 05:15:30;;;;;;;10.80;6.17;;;13.40;99.90;;;;;;5050447;28;20630;-86
2022/10/18 05:17:56;;;;;;;16.70;6.87;;;13.30;99.90;;;;;;5045773;28;20622;-87
2022/10/18 05:20:23;;;;;;;9.90;7.10;;;13.00;99.90;;;;;;5045896;28;20637;-86
2022/10/18 05:22:51;;;;;;;11.50;6.73;;;13.30;99.90;;;;;;5047083;28;21655;-87
2022/10/18 05:25:18;;;;;;;12.70;7.33;;;13.00;99.90;;;;;;5047785;28;20626;-87
2022/10/18 05:27:45;;;;;;;9.80;7.03;;;13.30;99.90;;;;;;5046455;28;20665;-86
2022/10/18 05:30:12;;;;;;;8.03;7.10;;;13.20;99.90;;;;;;5047140;28;21009;-86
2022/10/18 05:32:38;;;;;;;12.30;6.70;;;13.20;99.90;;;;;;5045422;28;20634;-87
2022/10/18 05:35:06;;;;;;;13.13;6.27;;;13.10;99.90;;;;;;5044885;28;20630;-86
2022/10/18 05:37:33;;;;;;;12.70;6.93;;;13.50;99.90;;;;;;5043369;28;20637;-86
2022/10/18 05:40:01;;;;;;;12.13;6.60;;;13.20;99.90;;;;;;5046181;28;20653;-87
2022/10/18 05:42:28;;;;;;;13.10;8.03;;;13.00;99.90;;;;;;5045330;28;20629;-87
2022/10/18 05:44:54;;;;;;;7.63;6.27;;;12.90;99.90;;;;;;5046685;28;20633;-87
2022/10/18 05:47:21;;;;;;;11.87;7.40;;;13.20;99.90;;;;;;5046817;28;20661;-86
2022/10/18 05:49:48;;;;;;;6.90;6.17;;;13.20;99.90;;;;;;5042936;28;21009;-87
2022/10/18 05:52:15;;;;;;;11.43;6.80;;;13.00;99.90;;;;;;5045122;28;20982;-87
2022/10/18 05:54:42;;;;;;;9.37;6.37;;;13.00;99.90;;;;;;5044507;28;21196;-87
2022/10/18 05:57:10;;;;;;;9.20;7.37;;;13.10;99.90;;;;;;5045264;28;20629;-87
2022/10/18 05:59:37;;;;;;;8.37;7.07;;;13.00;99.90;;;;;;5042784;28;20664;-86
2022/10/18 06:02:04;;;;;;;9.67;6.43;;;13.20;99.90;;;;;;5046451;28;20646;-86
2022/10/18 06:04:30;;;;;;;9.63;6.53;;;12.80;99.90;;;;;;5045145;28;21176;-87
2022/10/18 06:06:58;;;;;;;8.70;7.50;;;12.80;99.90;;;;;;5042874;28;20665;-87
2022/10/18 06:09:25;;;;;;;8.60;6.73;;;13.10;99.90;;;;;;5048158;28;20660;-86
2022/10/18 06:11:52;;;;;;;9.40;6.90;;;12.70;99.90;;;;;;5046256;28;20634;-86
2022/10/18 06:14:20;;;;;;;18.83;8.13;;;12.70;99.90;;;;;;5044065;28;21060;-88
2022/10/18 06:16:47;;;;;;;9.47;6.13;;;12.80;99.90;;;;;;5040352;28;20667;-87
2022/10/18 06:19:14;;;;;;;7.97;6.70;;;13.10;99.90;;;;;;5044780;28;21021;-87
2022/10/18 06:21:40;;;;;;;7.20;6.40;;;13.10;99.90;;;;;;5046855;28;20634;-87
2022/10/18 06:24:07;;;;;;;8.17;6.33;;;12.70;99.90;;;;;;5044767;28;20650;-86
2022/10/18 06:26:34;;;;;;;7.47;6.30;;;12.70;99.90;;;;;;5046682;28;20676;-86
2022/10/18 06:29:01;;;;;;;10.33;6.80;;;12.90;99.90;;;;;;5041204;28;20646;-86
2022/10/18 06:31:29;;;;;;;12.43;6.50;;;13.30;99.90;;;;;;5042511;28;20657;-86
2022/10/18 06:33:56;;;;;;;14.97;6.93;;;13.00;99.90;;;;;;5043417;28;20664;-86
2022/10/18 06:36:24;;;;;;;9.57;6.10;;;13.10;99.90;;;;;;5038897;28;21027;-86
2022/10/18 06:38:51;;;;;;;9.83;6.97;;;13.30;99.90;;;;;;5045359;28;20637;-86
2022/10/18 06:41:18;;;;;;;15.70;6.70;;;13.70;99.90;;;;;;5044706;28;21013;-86
2022/10/18 06:43:48;;;;;;;9.80;5.27;;;13.90;99.90;;;;;;5043214;28;20696;-86
2022/10/18 06:46:16;;;;;;;9.17;5.73;;;14.00;99.90;;;;;;5046864;28;20662;-86
2022/10/18 06:48:44;;;;;;;13.83;6.00;;;14.30;99.90;;;;;;5045149;28;21015;-87
2022/10/18 06:51:11;;;;;;;9.20;5.30;;;14.20;99.90;;;;;;5040720;28;20686;-87
2022/10/18 06:53:40;;;;;;;15.03;5.50;;;14.40;99.90;;;;;;5038606;28;20659;-87
2022/10/18 06:56:08;;;;;;;6.80;5.30;;;14.50;99.90;;;;;;5044759;28;20626;-87
2022/10/18 06:58:35;;;;;;;5.00;4.53;;;14.70;99.90;;;;;;5045646;28;20625;-87
2022/10/18 07:01:06;;;;;;;6.87;5.10;;;14.80;99.90;;;;;;5044161;28;20622;-88
2022/10/18 07:03:34;;;;;;;8.40;5.50;;;15.00;99.90;;;;;;5042842;28;20696;-88
2022/10/18 07:06:03;;;;;;;5.70;4.90;;;15.00;99.90;;;;;;5044459;28;20637;-88
2022/10/18 07:08:30;;;;;;;7.67;5.37;;;14.90;99.90;;;;;;5045609;28;21001;-87
2022/10/18 07:10:57;;;;;;;5.60;4.87;;;15.10;99.90;;;;;;5045635;28;20624;-86
2022/10/18 07:13:24;;;;;;;10.53;4.80;;;15.10;99.90;;;;;;5037781;28;21255;-88
2022/10/18 07:16:00;;;;;;;11.60;5.50;;;15.00;99.90;;;;;;5048513;28;20622;-87
2022/10/18 07:18:27;;;;;;;16.97;6.33;;;14.80;99.90;;;;;;5053279;28;21367;-87
2022/10/18 07:20:54;;;;;;;8.07;5.20;;;14.50;99.90;;;;;;5050050;28;20626;-87
2022/10/18 07:23:22;;;;;;;6.30;5.37;;;14.40;99.90;;;;;;5043050;28;20631;-88
2022/10/18 07:25:49;;;;;;;11.90;6.73;;;14.40;99.90;;;;;;5040905;28;20636;-87
2022/10/18 07:28:16;;;;;;;14.07;6.07;;;14.50;99.90;;;;;;5044473;28;20686;-87
2022/10/18 07:30:43;;;;;;;11.33;5.90;;;14.60;99.90;;;;;;5039389;28;20625;-87
2022/10/18 07:33:09;;;;;;;7.97;5.00;;;14.80;99.90;;;;;;5044769;28;21117;-88
2022/10/18 07:35:36;;;;;;;10.73;5.10;;;14.90;99.90;;;;;;5042245;28;20637;-87
2022/10/18 07:38:03;;;;;;;9.07;5.57;;;15.20;99.90;;;;;;5039840;28;20729;-87
2022/10/18 07:40:31;;;;;;;14.50;5.30;;;15.20;99.90;;;;;;5039055;28;20646;-87
2022/10/18 07:42:58;;;;;;;8.70;4.83;;;15.30;99.90;;;;;;5036803;28;20636;-87
2022/10/18 07:45:25;;;;;;;7.23;5.73;;;15.50;99.90;;;;;;5037215;28;20643;-86
2022/10/18 07:47:54;;;;;;;8.30;5.43;;;15.60;99.90;;;;;;5041401;28;20677;-87
2022/10/18 07:50:21;;;;;;;8.43;4.73;;;15.60;99.90;;;;;;5037414;28;21205;-89
2022/10/18 07:52:48;;;;;;;10.30;5.00;;;15.70;99.90;;;;;;5054178;28;20626;-89
2022/10/18 07:55:16;;;;;;;9.10;5.60;;;15.80;99.90;;;;;;5060492;28;20665;-89
2022/10/18 07:57:44;;;;;;;12.97;5.50;;;15.80;99.90;;;;;;5057375;28;20626;-89
2022/10/18 08:00:12;;;;;;;11.40;5.67;;;16.00;99.90;;;;;;5065831;28;20620;-89
2022/10/18 08:02:39;;;;;;;9.47;4.67;;;16.10;99.90;;;;;;5052050;28;21272;-90
2022/10/18 08:05:06;;;;;;;8.60;5.60;;;16.20;99.90;;;;;;5044810;28;20672;-90
2022/10/18 08:07:33;;;;;;;10.60;5.10;;;16.50;99.90;;;;;;5039039;28;21059;-89
2022/10/18 08:09:59;;;;;;;7.53;4.90;;;16.60;99.90;;;;;;5044956;28;20699;-90
2022/10/18 08:12:27;;;;;;;9.87;5.43;;;16.60;99.90;;;;;;5042396;28;20630;-89
2022/10/18 08:14:56;;;;;;;10.73;5.50;;;16.50;99.90;;;;;;5043035;28;20645;-89
2022/10/18 08:17:22;;;;;;;11.10;5.23;;;16.80;99.90;;;;;;5048664;28;20645;-89
2022/10/18 08:19:49;;;;;;;6.40;5.00;;;16.90;99.90;;;;;;5048690;28;20617;-87
2022/10/18 08:22:16;;;;;;;8.30;5.00;;;17.10;99.90;;;;;;5046698;28;20657;-86
2022/10/18 08:24:43;;;;;;;9.97;5.20;;;17.30;99.90;;;;;;5043099;28;20645;-88
2022/10/18 08:27:10;;;;;;;11.63;5.07;;;17.40;99.90;;;;;;5047510;28;20661;-88
2022/10/18 08:29:36;;;;;;;10.10;9.03;;;17.50;99.90;;;;;;5047345;28;20660;-86
2022/10/18 08:32:06;;;;;;;18.30;7.00;;;17.60;99.90;;;;;;5042861;28;20639;-89
2022/10/18 08:34:33;;;;;;;9.97;6.53;;;17.60;99.90;;;;;;5034093;28;20654;-87
2022/10/18 08:37:00;;;;;;;16.77;6.13;;;17.60;99.90;;;;;;5042340;28;20643;-87
2022/10/18 08:39:27;;;;;;;13.60;7.60;;;17.70;99.90;;;;;;5038617;28;20638;-88
2022/10/18 08:42:11;;;;;;;15.57;14.07;;;17.90;99.90;;;;;;5045435;28;20633;-89
2022/10/18 08:44:44;;;;;;;10.97;7.90;;;17.60;99.90;;;;;;5047361;28;20672;-88
2022/10/18 08:47:16;;;;;;;9.80;6.60;;;17.50;99.90;;;;;;5048494;28;21098;-88
2022/10/18 08:49:47;;;;;;;10.03;5.07;;;17.70;99.90;;;;;;5044752;28;20701;-88
2022/10/18 08:52:24;;;;;;;5.33;4.10;;;17.90;99.90;;;;;;5044550;28;20618;-88
2022/10/18 08:54:58;;;;;;;7.23;4.93;;;17.90;99.90;;;;;;5040590;28;20655;-87
2022/10/18 08:57:26;;;;;;;9.70;4.70;;;18.30;99.90;;;;;;5044705;28;20624;-87
2022/10/18 08:59:53;;;;;;;9.23;4.80;;;18.50;99.90;;;;;;5045275;28;20660;-88
2022/10/18 09:02:34;;;;;;;7.20;4.13;;;19.00;99.90;;;;;;5043778;28;20631;-89
2022/10/18 09:05:08;;;;;;;9.30;4.23;;;19.40;99.90;;;;;;5045572;28;21036;-88
2022/10/18 09:07:51;;;;;;;7.47;4.57;;;19.50;99.90;;;;;;5041850;28;20687;-89
2022/10/18 09:10:27;;;;;;;6.50;4.13;;;19.70;99.90;;;;;;5046739;28;21222;-91
2022/10/18 09:13:27;;;;;;;6.37;4.37;;;19.70;99.90;;;;;;5042183;28;20632;-88
2022/10/18 09:15:57;;;;;;;3.87;3.57;;;19.60;99.90;;;;;;5045147;28;20665;-88
2022/10/18 09:18:47;;;;;;;4.30;3.43;;;19.80;99.90;;;;;;5046257;28;20622;-89
2022/10/18 09:21:21;;;;;;;9.73;3.97;;;20.00;99.90;;;;;;5044429;28;20657;-89
2022/10/18 09:23:54;;;;;;;5.47;3.10;;;19.70;99.90;;;;;;5046771;28;21269;-89
2022/10/18 09:26:22;;;;;;;3.50;3.20;;;20.10;99.90;;;;;;5042357;28;20651;-87
2022/10/18 09:29:02;;;;;;;7.17;3.37;;;20.40;99.90;;;;;;5052419;28;20680;-88
2022/10/18 09:31:41;;;;;;;3.23;2.93;;;20.90;99.90;;;;;;5040882;28;21220;-89
2022/10/18 09:34:15;;;;;;;5.43;4.03;;;21.60;99.90;;;;;;5040502;28;20767;-89
2022/10/18 09:36:43;;;;;;;3.73;3.43;;;22.50;99.90;;;;;;5042080;28;20637;-87
2022/10/18 09:39:14;;;;;;;6.50;3.30;;;23.20;99.90;;;;;;5040052;28;20736;-88
2022/10/18 09:41:47;;;;;;;9.53;3.37;;;23.30;99.90;;;;;;5045699;28;20689;-88
2022/10/18 09:44:18;;;;;;;5.80;4.23;;;23.80;99.90;;;;;;5046142;28;20672;-89
2022/10/18 09:46:50;;;;;;;4.17;3.40;;;24.20;99.90;;;;;;5046849;28;20630;-88
2022/10/18 09:49:22;;;;;;;8.00;3.30;;;24.50;99.90;;;;;;5041311;28;20982;-89
2022/10/18 09:51:51;;;;;;;7.33;4.00;;;24.90;99.90;;;;;;5045621;28;21183;-89
2022/10/18 09:54:23;;;;;;;3.53;2.67;;;24.60;99.90;;;;;;5036569;28;20669;-89
2022/10/18 09:56:55;;;;;;;9.87;8.70;;;24.50;99.90;;;;;;5042916;28;20625;-89
2022/10/18 09:59:31;;;;;;;5.33;2.73;;;24.90;99.90;;;;;;5048263;28;20617;-89
2022/10/18 10:01:58;;;;;;;4.90;3.23;;;24.90;99.90;;;;;;5040482;28;20630;-89
2022/10/18 10:04:26;;;;;;;4.20;2.73;;;24.60;99.90;;;;;;5042883;28;21148;-89
2022/10/18 10:06:55;;;;;;;8.60;3.60;;;25.20;99.90;;;;;;5037771;28;20640;-90
2022/10/18 10:09:28;;;;;;;4.33;3.33;;;24.90;99.90;;;;;;5036377;28;20649;-90
2022/10/18 10:11:55;;;;;;;8.43;3.50;;;25.60;99.90;;;;;;5040918;28;20942;-89
2022/10/18 10:14:25;;;;;;;6.37;3.07;;;25.80;99.90;;;;;;5035488;28;20654;-89
2022/10/18 10:16:54;;;;;;;5.93;3.13;;;26.00;99.90;;;;;;5042804;28;20648;-88
2022/10/18 10:19:27;;;;;;;5.67;3.70;;;25.70;99.90;;;;;;5038702;28;20796;-88
2022/10/18 10:21:59;;;;;;;11.03;3.80;;;26.00;99.90;;;;;;5040160;28;21184;-89
2022/10/18 10:24:35;;;;;;;5.73;3.90;;;25.90;99.40;;;;;;5041811;28;20718;-88
2022/10/18 10:27:05;;;;;;;3.93;3.23;;;25.50;99.90;;;;;;5041440;28;21065;-87
2022/10/18 10:29:52;;;;;;;5.73;4.93;;;25.30;99.90;;;;;;5043312;28;20630;-87
2022/10/18 10:32:21;;;;;;;6.60;5.00;;;25.50;99.90;;;;;;5040256;28;20643;-88
2022/10/18 10:34:49;;;;;;;3.60;3.30;;;25.40;99.90;;;;;;5044106;28;21228;-88
2022/10/18 10:37:30;;;;;;;3.60;2.70;;;25.80;99.90;;;;;;5040360;28;20622;-88
2022/10/18 10:40:19;;;;;;;6.10;3.33;;;27.40;95.10;;;;;;5043995;28;20628;-88
2022/10/18 10:42:56;;;;;;;3.03;2.83;;;28.10;90.20;;;;;;5042999;28;20640;-90
2022/10/18 10:45:26;;;;;;;4.70;2.50;;;28.90;81.90;;;;;;5039330;28;20757;-89
2022/10/18 10:47:54;;;;;;;4.43;3.03;;;28.60;80.90;;;;;;5043800;28;20682;-88
2022/10/18 10:50:28;;;;;;;5.33;2.77;;;28.30;82.60;;;;;;5043848;28;20649;-88
2022/10/18 10:52:55;;;;;;;2.90;2.67;;;29.20;76.40;;;;;;5046442;28;20721;-88
2022/10/18 10:55:26;;;;;;;3.60;2.70;;;29.90;71.60;;;;;;5048101;28;20710;-89
2022/10/18 10:57:54;;;;;;;6.33;3.13;;;30.20;71.20;;;;;;5039412;28;20995;-89
2022/10/18 11:00:43;;;;;;;3.27;3.07;;;30.80;67.60;;;;;;5043419;28;20631;-90
2022/10/18 11:03:14;;;;;;;5.97;2.73;;;30.70;69.90;;;;;;5041888;28;20655;-90
2022/10/18 11:05:48;;;;;;;6.50;3.30;;;32.20;66.60;;;;;;5039256;28;20636;-89
2022/10/18 11:08:18;;;;;;;3.90;3.20;;;32.00;64.00;;;;;;5047057;28;20672;-90
2022/10/18 11:10:58;;;;;;;4.90;2.73;;;31.40;64.10;;;;;;5039734;28;20701;-90
2022/10/18 11:13:40;;;;;;;4.50;3.43;;;30.30;65.50;;;;;;5041714;28;20658;-89
2022/10/18 11:16:13;;;;;;;5.67;3.20;;;29.40;70.70;;;;;;5047951;28;20638;-90
2022/10/18 11:18:48;;;;;;;5.97;3.93;;;28.30;74.70;;;;;;5042675;28;20617;-89
2022/10/18 11:21:22;;;;;;;4.30;3.10;;;27.70;78.50;;;;;;5045329;28;20621;-88
2022/10/18 11:23:49;;;;;;;4.47;3.30;;;27.40;82.90;;;;;;5025257;28;21042;-88
2022/10/18 11:26:39;;;;;;;7.87;2.97;;;27.10;86.50;;;;;;5039434;28;20626;-88
2022/10/18 11:29:38;;;;;;;3.90;2.80;;;26.50;90.30;;;;;;5047107;28;20672;-88
2022/10/18 11:32:11;;;;;;;6.00;3.00;;;26.70;90.40;;;;;;5044878;28;20633;-88
2022/10/18 11:34:57;;;;;;;4.20;3.27;;;26.80;90.50;;;;;;5034521;28;20650;-88
2022/10/18 11:37:44;;;;;;;6.03;3.53;;;26.80;91.20;;;;;;5038485;28;20630;-89
2022/10/18 11:40:43;;;;;;;8.50;3.60;;;27.80;87.00;;;;;;5045011;28;20636;-88
2022/10/18 11:43:17;;;;;;;2.90;2.60;;;28.10;83.70;;;;;;5042724;28;20630;-89
2022/10/18 11:45:53;;;;;;;9.43;3.83;;;27.80;85.30;;;;;;5042075;28;20630;-88
2022/10/18 11:48:40;;;;;;;3.73;3.43;;;27.30;87.60;;;;;;5041733;28;20769;-89
2022/10/18 11:51:14;;;;;;;7.03;3.43;;;26.50;93.20;;;;;;5040751;28;20635;-88
2022/10/18 11:53:49;;;;;;;6.90;3.17;;;26.30;93.20;;;;;;5036611;28;20662;-89
2022/10/18 11:56:24;;;;;;;5.30;3.53;;;26.70;91.60;;;;;;5040372;28;20691;-89
2022/10/18 11:59:07;;;;;;;4.63;3.37;;;26.60;91.10;;;;;;5041924;28;20636;-88
2022/10/18 12:01:39;;;;;;;6.37;3.40;;;26.10;91.20;;;;;;5043352;28;20739;-88
2022/10/18 12:04:11;;;;;;;6.13;2.93;;;25.60;94.80;;;;;;5042680;28;20661;-88
2022/10/18 12:06:41;;;;;;;4.83;3.03;;;25.20;96.50;;;;;;5038562;28;20646;-88
2022/10/18 12:09:17;;;;;;;5.37;3.17;;;25.00;99.90;;;;;;5039313;28;20661;-88
2022/10/18 12:11:50;;;;;;;5.13;2.87;;;24.70;99.90;;;;;;5047836;28;20636;-87
2022/10/18 12:14:24;;;;;;;5.07;2.90;;;25.30;97.30;;;;;;5044002;28;20665;-88
2022/10/18 12:16:52;;;;;;;7.40;4.10;;;25.10;98.50;;;;;;5040700;28;20634;-87
2022/10/18 12:19:22;;;;;;;3.13;2.87;;;25.20;99.90;;;;;;5043729;28;20645;-87
2022/10/18 12:21:51;;;;;;;6.00;3.37;;;26.50;94.50;;;;;;5040167;28;20595;-87
2022/10/18 12:24:24;;;;;;;5.57;2.70;;;27.90;88.90;;;;;;5040163;28;20668;-91
2022/10/18 12:26:57;;;;;;;9.00;2.70;;;29.20;82.20;;;;;;5042888;28;20631;-89
2022/10/18 12:29:30;;;;;;;4.37;3.20;;;28.90;78.80;;;;;;5033521;28;21287;-88
2022/10/18 12:32:01;;;;;;;6.80;3.63;;;28.00;87.70;;;;;;5033473;28;21249;-88
2022/10/18 12:34:34;;;;;;;3.30;2.40;;;28.30;85.60;;;;;;5038577;28;20688;-88
2022/10/18 12:37:22;;;;;;;3.57;2.50;;;28.40;86.10;;;;;;5041251;28;20622;-88
2022/10/18 12:39:53;;;;;;;3.10;2.80;;;28.00;86.60;;;;;;5051439;28;20613;-87
2022/10/18 12:42:22;;;;;;;5.97;2.50;;;27.70;89.60;;;;;;5041155;28;20773;-88
2022/10/18 12:44:59;;;;;;;6.13;3.40;;;29.10;82.90;;;;;;5039314;28;20657;-89
2022/10/18 12:47:28;;;;;;;5.27;3.10;;;30.20;78.20;;;;;;5039096;28;21155;-88
2022/10/18 12:50:04;;;;;;;7.40;2.50;;;30.30;74.70;;;;;;5044332;28;20669;-87
2022/10/18 12:52:35;;;;;;;3.80;2.23;;;30.10;74.00;;;;;;5059079;28;20627;-88
2022/10/18 12:55:31;;;;;;;3.30;1.90;;;30.20;75.00;;;;;;5053540;28;20745;-88
2022/10/18 12:58:20;;;;;;;1.93;1.80;;;29.50;74.80;;;;;;5066327;28;20621;-90
2022/10/18 13:01:00;;;;;;;2.73;2.53;;;29.20;78.30;;;;;;5066824;28;20660;-89